MARLES LES MINES (62) - B (Orange)

Date : 01/10/2016
Distance : 2,400 km

Place Nom Licence Catégorie Club Temps min/km CN à J-60 Points Différence Nouveau CN
1 FAGOT Nicolas 29768 H14 6205NO 0:21:15 8'51 2786 3930 +1144 3335
2 PREUD'HOMME Tanguy 31537 H16 6203NO 0:22:45 9'28 1982 3671 +1689 2589
3 LABARRE Maria 29467 D18 6205NO 0:23:01 9'35 5335 3628 -1707 5338
4 CLAIRET Richard 16397 H40 6205NO 0:23:34 9'49 5428 3544 -1884 5484
5 MERCIER Agnès 23079 D21 5907NO 0:24:35 10'14 5515 3397 -2118 5674
6 LANDRY Pauline 30414 D16 6203NO 0:24:37 10'15 2101 3392 +1291 2405
7 BERNET-ROLLANDE Quentin 24710 H14 5907NO 0:24:53 10'22 3241 3356 +115 3691
8 ROLIN Agathe 25062 D14 6208NO 0:26:22 10'59 2619 3167 +548 2821
9 RAIFF Simon 25356 H14 5909NO 0:27:03 11'16 2573 3087 +514 2659
10 FAGOT Clémence 27224 D16 6205NO 0:27:40 11'31 2626 3018 +392 2847
11 SANCHEZ Marlene 15247 D35 6208NO 0:27:42 11'32 4640 3015 -1625 4662
12 VEROVE Guilhem 28495 H12 5907NO 0:28:00 11'40 2417 2983 +566 2571
13 LAUDE MAGALI 28688 D40 6208NO 0:28:19 11'47 4035 2949 -1086 4035
14 VIEQUE Karine 25018 D40 6208NO 0:29:43 12'22 3958 2810 -1148 4013
15 BAUD Sandrine 27612 D40 6203NO 0:30:15 12'36 2812 2761 -51 2820
16 FRANCOISE Charlotte 32331 D21 5906NO 0:31:10 12'59 3459 2680 -779 3616
17 ROLIN Charlotte 23947 D40 6208NO 0:31:12 13'00 3703 2677 -1026 3587
18 DELCUSE Patricia 29299 D40 6205NO 0:31:45 13'13 3018 2630 -388 3246
19 CHAPUS Mayeul 25971 H14 6205NO 0:32:45 13'38 2849 2550 -299 2866
20 VANDOMME Elodie 23560 D35 6208NO 0:33:18 13'52 2682 2508 -174 2926
21 GREGORCIC Tom 31485 H16 6203NO 0:35:36 14'50 1952 2346 +394 2154
22 PRUVOST Virginie 25881 D45 6208NO 0:36:53 15'22 2913 2264 -649 2903
23 PERETTI Serge 29320 H45 6203NO 0:37:08 15'28 1803 2249 +446 1624
24 JASKINA Catherine 28714 D55 6203NO 0:38:16 15'56 2099 2182 +83 2218
25 VITTU AURELIE 32210 D21 6203NO 0:38:24 16'00 2847 2175 -672 2802
26 MORET Klara 32902 D16 5907NO 0:40:24 16'50 1599 2067 +468 2700
27 SENCE Marie-Pierre 29897 D40 5906NO 0:40:26 16'50 2663 2065 -598 2954
28 GALLIEZ Mathilde 31939 D14 5907NO 0:42:20 17'38 1215 1973 +758 2173
29 THERY Sophie 27606 D40 6203NO 0:42:32 17'43 2282 1963 -319 2332
30 BELLENGIER Sabine 25381 D40 6208NO 0:42:48 17'50 2593 1951 -642 2814
31 LUDEWIG-JAMES Carol 15894 D75 5907NO 1:18:11 32'34 1460 1068 -392 1579
VARIN Lucas 31334 H16 5906NO pm None 3724 0 4109